Terminal Aerodrome Forecast
Issued by NWS

Home | Current Version | Previous Version | Text Only | Print | Product List | Glossary On
Versions: 1 2 3 4 5 6 7 8 9 10 11 12 13 14 15 16 17 18 19 20 21 22 23 24 25 26 27 28 29 30
000
FTUS42 KCAE 190800 AAA
TAFOGB
TAF AMD
KOGB 190854Z 1909/2006 VRB03KT P6SM SCT250
      TEMPO 1910/1912 3SM BR
     FM191500 04003KT P6SM SCT200
     FM200000 VRB03KT P6SM OVC100=

USA.gov is the U.S. government's official web portal to all federal, state and local government web resources and services.